Terminal Aerodrome Forecast
Issued by NWS Chicago, IL

Home | Current Version | Previous Version | Text Only | Print | Product List | Glossary Off
Versions: 1 2 3 4 5 6 7 8 9 10 11 12 13 14 15 16 17 18 19 20 21 22 23 24 25 26 27 28 29 30 31 32 33

000
FTUS43 KLOT 290300 AAA
TAFRFD
TAF AMD
KRFD 290302Z 2903/2924 16014G21KT P6SM SCT100 BKN150
     FM290600 17014G22KT P6SM SCT120
     FM290900 19013KT 5SM -DZ BR OVC010
     FM291300 33017G27KT P6SM -RASN OVC015
     FM291600 33020G31KT P6SM BKN020=

USA.gov is the U.S. government's official web portal to all federal, state and local government web resources and services.